createdAt,value
2022-08-28T00:00:14.597Z,3.40
2022-08-28T00:01:14.566Z,3.20
2022-08-28T00:02:14.565Z,3.10
2022-08-28T00:03:14.657Z,3.40
2022-08-28T00:04:14.591Z,3.00
2022-08-28T00:05:14.587Z,3.30
2022-08-28T00:06:14.522Z,3.50
2022-08-28T00:07:14.514Z,3.60
2022-08-28T00:08:14.562Z,3.00
2022-08-28T00:09:14.506Z,3.60
2022-08-28T00:10:14.503Z,3.00
2022-08-28T00:11:14.491Z,3.60
2022-08-28T00:12:14.476Z,3.20
2022-08-28T00:13:14.474Z,3.40
2022-08-28T00:14:14.467Z,3.20
2022-08-28T00:15:14.474Z,3.30
2022-08-28T00:16:14.504Z,3.30
2022-08-28T00:17:14.452Z,3.40
2022-08-28T00:18:14.518Z,3.30
2022-08-28T00:19:14.426Z,3.30
2022-08-28T00:20:14.456Z,3.30
2022-08-28T00:21:14.425Z,3.30
2022-08-28T00:22:14.413Z,3.40
2022-08-28T00:23:14.451Z,3.40
2022-08-28T00:24:14.406Z,3.70
2022-08-28T00:25:14.464Z,3.30
2022-08-28T00:26:14.436Z,3.20
2022-08-28T00:27:14.383Z,3.40
2022-08-28T00:28:23.621Z,3.60
2022-08-28T00:29:14.369Z,3.50
2022-08-28T00:30:14.372Z,3.30
2022-08-28T00:31:14.412Z,3.60
2022-08-28T00:32:14.334Z,3.40
2022-08-28T00:33:14.347Z,3.40
2022-08-28T00:34:14.323Z,3.40
2022-08-28T00:35:14.340Z,3.40
2022-08-28T00:36:14.320Z,3.80
2022-08-28T00:37:14.310Z,3.00
2022-08-28T00:38:14.567Z,3.70
2022-08-28T00:39:14.291Z,3.40
2022-08-28T00:40:14.375Z,3.30
2022-08-28T00:41:15.116Z,3.60
2022-08-28T00:42:14.269Z,3.10
2022-08-28T00:43:14.266Z,3.30
2022-08-28T00:44:14.252Z,3.80
2022-08-28T00:45:14.261Z,3.70
2022-08-28T00:46:14.271Z,3.60
2022-08-28T00:47:14.240Z,4.20
2022-08-28T00:48:14.379Z,3.60
2022-08-28T00:49:14.221Z,3.70
2022-08-28T00:50:14.241Z,3.80
2022-08-28T00:51:14.218Z,3.40
2022-08-28T00:52:14.200Z,3.50
2022-08-28T00:53:14.211Z,3.50
2022-08-28T00:54:14.180Z,3.20
2022-08-28T00:55:14.180Z,3.50
2022-08-28T00:56:14.180Z,3.60
2022-08-28T00:57:14.170Z,3.40
2022-08-28T00:58:14.435Z,3.40
2022-08-28T00:59:14.151Z,3.30
2022-08-28T01:00:14.161Z,3.40
2022-08-28T01:01:14.409Z,3.60
2022-08-28T01:02:14.129Z,3.50
2022-08-28T01:03:14.181Z,3.50
2022-08-28T01:04:14.119Z,3.50
2022-08-28T01:05:14.109Z,3.80
2022-08-28T01:06:14.111Z,3.50
2022-08-28T01:07:14.096Z,4.20
2022-08-28T01:08:14.218Z,3.40
2022-08-28T01:09:14.079Z,3.50
2022-08-28T01:10:14.068Z,3.80
2022-08-28T01:11:14.139Z,3.30
2022-08-28T01:12:14.059Z,3.50
2022-08-28T01:13:14.049Z,3.70
2022-08-28T01:14:14.058Z,3.50
2022-08-28T01:15:14.174Z,3.80
2022-08-28T01:16:14.271Z,3.60
2022-08-28T01:17:14.038Z,3.70
2022-08-28T01:18:14.246Z,3.50
2022-08-28T01:19:14.010Z,3.60
2022-08-28T01:20:13.997Z,3.50
2022-08-28T01:21:20.052Z,3.60
2022-08-28T01:22:13.987Z,3.70
2022-08-28T01:23:13.996Z,3.80
2022-08-28T01:24:13.976Z,3.80
2022-08-28T01:25:13.968Z,4.20
2022-08-28T01:26:13.980Z,3.70
2022-08-28T01:27:13.957Z,3.50
2022-08-28T01:28:14.043Z,3.40
2022-08-28T01:29:13.948Z,3.70
2022-08-28T01:30:13.958Z,3.70
2022-08-28T01:31:13.980Z,3.80
2022-08-28T01:32:13.918Z,3.60
2022-08-28T01:33:13.906Z,3.50
2022-08-28T01:34:13.912Z,4.30
2022-08-28T01:35:13.890Z,4.10
2022-08-28T01:36:13.906Z,3.90
2022-08-28T01:37:13.888Z,3.70
2022-08-28T01:38:20.027Z,3.70
2022-08-28T01:39:13.889Z,4.00
2022-08-28T01:40:13.949Z,3.50
2022-08-28T01:41:13.887Z,3.80
2022-08-28T01:42:13.907Z,3.50
2022-08-28T01:43:13.835Z,4.10
2022-08-28T01:44:13.845Z,3.90
2022-08-28T01:45:13.820Z,4.10
2022-08-28T01:46:13.873Z,3.90
2022-08-28T01:47:13.806Z,4.00
2022-08-28T01:48:14.030Z,3.50
2022-08-28T01:49:13.805Z,4.20
2022-08-28T01:50:13.793Z,3.40
2022-08-28T01:51:13.784Z,3.90
2022-08-28T01:52:13.772Z,4.00
2022-08-28T01:53:13.763Z,3.60
2022-08-28T01:54:13.794Z,3.60
2022-08-28T01:55:13.745Z,3.50
2022-08-28T01:56:13.764Z,3.70
2022-08-28T01:57:13.733Z,3.70
2022-08-28T01:58:14.028Z,3.50
2022-08-28T01:59:13.726Z,4.40
2022-08-28T02:00:13.725Z,3.80
2022-08-28T02:01:13.762Z,3.90
2022-08-28T02:02:13.694Z,3.50
2022-08-28T02:03:13.697Z,3.90
2022-08-28T02:04:13.787Z,4.00
2022-08-28T02:05:13.684Z,3.90
2022-08-28T02:06:13.745Z,3.90
2022-08-28T02:07:13.721Z,4.00
2022-08-28T02:08:13.830Z,4.00
2022-08-28T02:09:14.758Z,3.60
2022-08-28T02:10:13.654Z,3.90
2022-08-28T02:11:13.703Z,3.40
2022-08-28T02:12:13.642Z,3.90
2022-08-28T02:13:13.633Z,3.60
2022-08-28T02:14:13.643Z,3.70
2022-08-28T02:15:13.617Z,3.70
2022-08-28T02:16:13.685Z,3.50
2022-08-28T02:17:13.593Z,3.90
2022-08-28T02:18:13.810Z,3.70
2022-08-28T02:19:13.583Z,3.80
2022-08-28T02:20:13.591Z,4.00
2022-08-28T02:21:13.582Z,4.00
2022-08-28T02:22:13.569Z,4.10
2022-08-28T02:23:13.565Z,3.90
2022-08-28T02:24:13.562Z,4.30
2022-08-28T02:25:13.541Z,3.70
2022-08-28T02:26:13.569Z,3.60
2022-08-28T02:27:13.541Z,3.80
2022-08-28T02:28:13.724Z,3.60
2022-08-28T02:29:13.530Z,4.10
2022-08-28T02:30:13.540Z,4.10
2022-08-28T02:31:13.598Z,3.70
2022-08-28T02:32:13.521Z,3.40
2022-08-28T02:33:13.490Z,4.40
2022-08-28T02:34:13.501Z,3.90
2022-08-28T02:35:13.489Z,3.70
2022-08-28T02:36:13.470Z,3.70
2022-08-28T02:37:13.492Z,4.30
2022-08-28T02:38:13.539Z,3.90
2022-08-28T02:39:13.442Z,3.90
2022-08-28T02:40:13.513Z,3.80
2022-08-28T02:41:13.429Z,3.70
2022-08-28T02:42:13.486Z,4.10
2022-08-28T02:43:13.422Z,3.60
2022-08-28T02:44:13.421Z,3.50
2022-08-28T02:45:13.400Z,3.80
2022-08-28T02:46:13.433Z,4.10
2022-08-28T02:47:13.400Z,4.10
2022-08-28T02:48:16.923Z,3.50
2022-08-28T02:49:13.460Z,3.90
2022-08-28T02:50:13.387Z,3.90
2022-08-28T02:51:13.403Z,3.90
2022-08-28T02:52:13.370Z,3.60
2022-08-28T02:53:13.349Z,3.80
2022-08-28T02:54:13.349Z,3.80
2022-08-28T02:55:13.331Z,4.00
2022-08-28T02:56:13.329Z,4.20
2022-08-28T02:57:13.328Z,4.30
2022-08-28T02:58:13.475Z,3.90
2022-08-28T02:59:13.298Z,3.80
2022-08-28T03:00:13.309Z,3.80
2022-08-28T03:01:13.349Z,3.70
2022-08-28T03:02:13.547Z,3.80
2022-08-28T03:03:13.289Z,4.10
2022-08-28T03:04:13.288Z,3.90
2022-08-28T03:05:13.280Z,3.70
2022-08-28T03:06:13.261Z,4.10
2022-08-28T03:07:13.263Z,3.60
2022-08-28T03:08:13.395Z,4.20
2022-08-28T03:09:13.242Z,4.10
2022-08-28T03:10:13.228Z,3.90
2022-08-28T03:11:13.225Z,3.80
2022-08-28T03:12:13.238Z,3.90
2022-08-28T03:13:13.830Z,4.10
2022-08-28T03:14:13.220Z,3.90
2022-08-28T03:15:13.204Z,3.90
2022-08-28T03:16:13.262Z,3.60
2022-08-28T03:17:13.207Z,3.90
2022-08-28T03:18:13.486Z,3.90
2022-08-28T03:19:13.156Z,3.90
2022-08-28T03:20:13.158Z,3.80
2022-08-28T03:21:13.153Z,3.60
2022-08-28T03:22:13.174Z,3.80
2022-08-28T03:23:13.136Z,4.40
2022-08-28T03:24:15.706Z,3.90
2022-08-28T03:25:13.116Z,4.00
2022-08-28T03:26:13.117Z,4.50
2022-08-28T03:27:13.153Z,3.80
2022-08-28T03:28:13.202Z,4.10
2022-08-28T03:29:13.119Z,3.80
2022-08-28T03:30:13.085Z,4.10
2022-08-28T03:31:13.162Z,3.70
2022-08-28T03:32:13.094Z,3.90
2022-08-28T03:33:13.064Z,4.30
2022-08-28T03:34:13.065Z,4.20
2022-08-28T03:35:13.045Z,4.10
2022-08-28T03:36:13.051Z,4.20
2022-08-28T03:37:13.106Z,4.40
2022-08-28T03:38:13.140Z,4.40
2022-08-28T03:39:13.016Z,4.30
2022-08-28T03:40:13.113Z,3.90
2022-08-28T03:41:13.026Z,4.20
2022-08-28T03:42:13.112Z,4.20
2022-08-28T03:43:12.995Z,4.20
2022-08-28T03:44:13.001Z,3.60
2022-08-28T03:45:12.987Z,4.00
2022-08-28T03:46:13.011Z,4.00
2022-08-28T03:47:12.973Z,4.10
2022-08-28T03:48:13.250Z,3.80
2022-08-28T03:49:12.963Z,4.00
2022-08-28T03:50:12.962Z,4.00
2022-08-28T03:51:12.957Z,3.60
2022-08-28T03:52:12.934Z,4.10
2022-08-28T03:53:12.953Z,3.80
2022-08-28T03:54:12.991Z,4.10
2022-08-28T03:55:12.913Z,4.20
2022-08-28T03:56:12.911Z,3.80
2022-08-28T03:57:12.902Z,4.00
2022-08-28T03:58:19.081Z,4.20
2022-08-28T03:59:12.904Z,3.80
2022-08-28T04:00:12.893Z,3.90
2022-08-28T04:01:12.946Z,4.10
2022-08-28T04:02:12.871Z,4.00
2022-08-28T04:03:12.970Z,4.20
2022-08-28T04:04:12.863Z,4.30
2022-08-28T04:05:12.840Z,3.90
2022-08-28T04:06:12.841Z,4.10
2022-08-28T04:07:12.831Z,4.10
2022-08-28T04:08:12.921Z,4.00
2022-08-28T04:09:12.818Z,4.00
2022-08-28T04:10:12.831Z,3.60
2022-08-28T04:11:12.800Z,4.20
2022-08-28T04:12:12.801Z,3.90
2022-08-28T04:13:12.838Z,4.10
2022-08-28T04:14:12.797Z,4.20
2022-08-28T04:15:12.774Z,3.80
2022-08-28T04:16:12.828Z,4.30
2022-08-28T04:17:12.808Z,4.20
2022-08-28T04:18:12.928Z,4.00
2022-08-28T04:19:12.742Z,4.00
2022-08-28T04:20:12.770Z,3.70
2022-08-28T04:21:12.838Z,4.30
2022-08-28T04:22:12.769Z,3.90
2022-08-28T04:23:12.731Z,4.00
2022-08-28T04:24:12.735Z,4.20
2022-08-28T04:25:12.709Z,3.90
2022-08-28T04:26:12.706Z,3.80
2022-08-28T04:27:12.690Z,3.60
2022-08-28T04:28:12.892Z,4.10
2022-08-28T04:29:12.705Z,3.90
2022-08-28T04:30:12.679Z,4.20
2022-08-28T04:31:12.668Z,3.90
2022-08-28T04:32:12.681Z,4.00
2022-08-28T04:33:12.667Z,4.00
2022-08-28T04:34:12.655Z,4.50
2022-08-28T04:35:12.647Z,4.00
2022-08-28T04:36:12.627Z,4.10
2022-08-28T04:37:12.628Z,4.20
2022-08-28T04:38:12.668Z,4.70
2022-08-28T04:39:12.609Z,3.80
2022-08-28T04:40:12.743Z,4.40
2022-08-28T04:41:12.595Z,4.40
2022-08-28T04:42:13.204Z,4.10
2022-08-28T04:43:12.597Z,3.90
2022-08-28T04:44:13.439Z,4.20
2022-08-28T04:45:12.727Z,4.00
2022-08-28T04:46:13.187Z,4.10
2022-08-28T04:47:12.556Z,4.60
2022-08-28T04:48:13.447Z,3.80
2022-08-28T04:49:13.309Z,4.00
2022-08-28T04:50:12.726Z,4.60
2022-08-28T04:51:12.906Z,4.20
2022-08-28T04:52:12.574Z,4.10
2022-08-28T04:53:12.925Z,4.60
2022-08-28T04:54:13.315Z,4.20
2022-08-28T04:55:12.515Z,4.10
2022-08-28T04:56:12.498Z,3.90
2022-08-28T04:57:12.485Z,4.50
2022-08-28T04:58:12.599Z,4.60
2022-08-28T04:59:12.464Z,4.20
2022-08-28T05:00:12.474Z,4.50
2022-08-28T05:01:12.500Z,4.40
2022-08-28T05:02:12.493Z,4.60
2022-08-28T05:03:12.453Z,4.30
2022-08-28T05:04:12.483Z,4.10
2022-08-28T05:05:12.482Z,4.00
2022-08-28T05:06:12.415Z,4.10
2022-08-28T05:07:12.403Z,4.40
2022-08-28T05:08:12.580Z,4.60
2022-08-28T05:09:12.395Z,4.20
2022-08-28T05:10:12.393Z,4.50
2022-08-28T05:11:12.373Z,4.30
2022-08-28T05:12:12.372Z,4.10
2022-08-28T05:13:12.361Z,4.30
2022-08-28T05:14:15.926Z,4.50
2022-08-28T05:15:12.532Z,3.80
2022-08-28T05:16:12.435Z,4.30
2022-08-28T05:17:12.342Z,4.20
2022-08-28T05:18:12.674Z,3.90
2022-08-28T05:19:12.539Z,4.10
2022-08-28T05:20:13.301Z,4.20
2022-08-28T05:21:14.447Z,4.00
2022-08-28T05:22:12.302Z,4.10
2022-08-28T05:23:12.580Z,4.10
2022-08-28T05:24:12.330Z,4.10
2022-08-28T05:25:12.284Z,4.40
2022-08-28T05:26:12.282Z,4.40
2022-08-28T05:27:12.480Z,4.00
2022-08-28T05:28:12.559Z,3.90
2022-08-28T05:29:12.398Z,4.00
2022-08-28T05:30:12.250Z,4.10
2022-08-28T05:31:12.302Z,4.20
2022-08-28T05:32:12.739Z,4.10
2022-08-28T05:33:12.740Z,4.60
2022-08-28T05:34:12.249Z,4.20
2022-08-28T05:35:12.521Z,4.20
2022-08-28T05:36:12.210Z,3.70
2022-08-28T05:37:15.429Z,3.90
2022-08-28T05:38:12.358Z,3.90
2022-08-28T05:39:12.195Z,4.40
2022-08-28T05:40:12.208Z,4.30
2022-08-28T05:41:12.470Z,4.00
2022-08-28T05:42:12.159Z,4.30
2022-08-28T05:43:12.561Z,4.20
2022-08-28T05:44:12.169Z,4.00
2022-08-28T05:45:12.618Z,4.10
2022-08-28T05:46:12.164Z,4.00
2022-08-28T05:47:12.128Z,4.20
2022-08-28T05:48:12.297Z,4.10
2022-08-28T05:49:12.138Z,4.40
2022-08-28T05:50:12.099Z,4.10
2022-08-28T05:51:12.206Z,4.10
2022-08-28T05:52:12.088Z,4.00
2022-08-28T05:53:12.077Z,4.20
2022-08-28T05:54:12.097Z,3.90
2022-08-28T05:55:12.067Z,4.30
2022-08-28T05:56:12.058Z,4.20
2022-08-28T05:57:12.055Z,3.90
2022-08-28T05:58:12.200Z,4.10
2022-08-28T05:59:12.087Z,3.90
2022-08-28T06:00:12.027Z,4.10
2022-08-28T06:01:12.040Z,4.10
2022-08-28T06:02:12.064Z,4.00
2022-08-28T06:03:12.826Z,3.90
2022-08-28T06:04:12.120Z,3.90
2022-08-28T06:05:13.079Z,3.90
2022-08-28T06:06:11.996Z,3.80
2022-08-28T06:07:11.987Z,3.90
2022-08-28T06:08:12.206Z,3.90
2022-08-28T06:09:11.997Z,4.00
2022-08-28T06:10:12.064Z,3.90
2022-08-28T06:11:11.956Z,3.60
2022-08-28T06:12:12.206Z,3.80
2022-08-28T06:13:11.952Z,3.90
2022-08-28T06:14:12.025Z,3.70
2022-08-28T06:15:11.937Z,3.70
2022-08-28T06:16:11.968Z,4.20
2022-08-28T06:17:11.924Z,3.90
2022-08-28T06:18:12.400Z,3.90
2022-08-28T06:19:11.915Z,3.60
2022-08-28T06:20:11.886Z,3.70
2022-08-28T06:21:11.904Z,3.80
2022-08-28T06:22:11.897Z,3.90
2022-08-28T06:23:11.874Z,4.30
2022-08-28T06:24:11.888Z,3.70
2022-08-28T06:25:11.863Z,3.90
2022-08-28T06:26:11.854Z,4.40
2022-08-28T06:27:11.844Z,4.20
2022-08-28T06:28:12.127Z,3.60
2022-08-28T06:29:11.843Z,4.20
2022-08-28T06:30:11.821Z,3.70
2022-08-28T06:31:24.270Z,3.50
2022-08-28T06:32:11.878Z,3.70
2022-08-28T06:33:11.803Z,3.90
2022-08-28T06:34:11.813Z,3.80
2022-08-28T06:35:11.794Z,3.90
2022-08-28T06:36:11.788Z,3.70
2022-08-28T06:37:11.772Z,3.60
2022-08-28T06:38:11.832Z,3.70
2022-08-28T06:39:11.803Z,3.60
2022-08-28T06:40:11.790Z,3.70
2022-08-28T06:41:11.756Z,3.90
2022-08-28T06:42:11.750Z,3.90
2022-08-28T06:43:11.732Z,3.50
2022-08-28T06:44:11.752Z,3.70
2022-08-28T06:45:11.723Z,3.40
2022-08-28T06:46:11.797Z,3.80
2022-08-28T06:47:11.710Z,3.60
2022-08-28T06:48:11.831Z,3.60
2022-08-28T06:49:11.711Z,3.60
2022-08-28T06:50:11.782Z,3.40
2022-08-28T06:51:11.681Z,4.00
2022-08-28T06:52:11.668Z,3.60
2022-08-28T06:53:11.668Z,3.40
2022-08-28T06:54:11.680Z,3.60
2022-08-28T06:55:11.660Z,3.40
2022-08-28T06:56:13.661Z,3.60
2022-08-28T06:57:11.640Z,3.40
2022-08-28T06:58:11.694Z,3.50
2022-08-28T06:59:11.640Z,3.20
2022-08-28T07:00:11.621Z,3.60
2022-08-28T07:01:12.197Z,3.30
2022-08-28T07:02:11.653Z,3.50
2022-08-28T07:03:11.594Z,3.50
2022-08-28T07:04:11.651Z,3.40
2022-08-28T07:05:11.581Z,3.60
2022-08-28T07:06:11.570Z,3.80
2022-08-28T07:07:11.566Z,3.60
2022-08-28T07:08:11.817Z,3.60
2022-08-28T07:09:11.570Z,3.30
2022-08-28T07:10:11.538Z,3.20
2022-08-28T07:11:11.540Z,3.30
2022-08-28T07:12:11.527Z,3.10
2022-08-28T07:13:12.088Z,3.10
2022-08-28T07:14:12.150Z,3.20
2022-08-28T07:15:11.511Z,3.20
2022-08-28T07:16:11.586Z,3.00
2022-08-28T07:17:11.918Z,3.30
2022-08-28T07:18:11.756Z,3.50
2022-08-28T07:19:11.508Z,3.30
2022-08-28T07:20:11.490Z,3.00
2022-08-28T07:21:12.693Z,3.00
2022-08-28T07:22:11.869Z,3.00
2022-08-28T07:23:12.509Z,2.80
2022-08-28T07:24:11.496Z,3.10
2022-08-28T07:25:11.448Z,3.10
2022-08-28T07:26:11.432Z,3.10
2022-08-28T07:27:14.702Z,3.10
2022-08-28T07:28:11.418Z,3.10
2022-08-28T07:29:11.851Z,3.20
2022-08-28T07:30:11.398Z,2.80
2022-08-28T07:31:11.443Z,2.90
2022-08-28T07:32:11.837Z,2.70
2022-08-28T07:33:11.385Z,2.70
2022-08-28T07:34:11.945Z,2.80
2022-08-28T07:35:11.367Z,2.70
2022-08-28T07:36:15.710Z,3.30
2022-08-28T07:37:15.237Z,3.20
2022-08-28T07:38:11.347Z,2.70
2022-08-28T07:39:11.338Z,3.20
2022-08-28T07:40:11.476Z,2.80
2022-08-28T07:41:11.326Z,2.90
2022-08-28T07:42:11.329Z,2.80
2022-08-28T07:43:11.315Z,2.90
2022-08-28T07:44:11.324Z,2.80
2022-08-28T07:45:11.530Z,2.80
2022-08-28T07:46:11.358Z,2.50
2022-08-28T07:47:11.297Z,2.80
2022-08-28T07:48:13.456Z,2.60
2022-08-28T07:49:11.442Z,2.70
2022-08-28T07:50:12.215Z,2.50
2022-08-28T07:51:11.255Z,3.00
2022-08-28T07:52:11.254Z,2.50
2022-08-28T07:53:11.356Z,2.50
2022-08-28T07:54:14.743Z,2.60
2022-08-28T07:55:11.247Z,2.50
2022-08-28T07:56:11.366Z,2.70
2022-08-28T07:57:11.224Z,2.60
2022-08-28T07:58:11.304Z,2.60
2022-08-28T07:59:11.714Z,2.50
2022-08-28T08:00:11.204Z,2.70
2022-08-28T08:01:11.242Z,2.30
2022-08-28T08:02:11.178Z,2.50
2022-08-28T08:03:11.337Z,2.30
2022-08-28T08:04:11.362Z,2.70
2022-08-28T08:05:11.195Z,2.90
2022-08-28T08:06:11.152Z,2.20
2022-08-28T08:07:11.517Z,2.50
2022-08-28T08:08:11.694Z,2.50
2022-08-28T08:09:11.134Z,2.30
2022-08-28T08:10:11.153Z,2.60
2022-08-28T08:11:16.579Z,2.10
2022-08-28T08:12:11.203Z,2.10
2022-08-28T08:13:11.805Z,2.30
2022-08-28T08:14:11.105Z,2.30
2022-08-28T08:15:11.114Z,2.30
2022-08-28T08:16:11.136Z,2.70
2022-08-28T08:17:11.167Z,2.30
2022-08-28T08:18:12.125Z,2.40
2022-08-28T08:19:11.074Z,2.40
2022-08-28T08:20:11.075Z,2.40
2022-08-28T08:21:11.933Z,2.20
2022-08-28T08:22:11.963Z,2.10
2022-08-28T08:23:11.452Z,2.20
2022-08-28T08:24:11.033Z,2.30
2022-08-28T08:25:11.033Z,2.20
2022-08-28T08:26:11.144Z,2.30
2022-08-28T08:27:11.992Z,2.30
2022-08-28T08:28:11.703Z,2.20
2022-08-28T08:29:11.013Z,2.40
2022-08-28T08:30:11.833Z,2.10
2022-08-28T08:31:11.038Z,2.50
2022-08-28T08:32:10.991Z,2.10
2022-08-28T08:33:10.974Z,2.70
2022-08-28T08:34:10.982Z,2.20
2022-08-28T08:35:10.993Z,2.40
2022-08-28T08:36:10.970Z,2.30
2022-08-28T08:37:10.939Z,2.40
2022-08-28T08:38:10.931Z,2.30
2022-08-28T08:39:10.945Z,2.40
2022-08-28T08:40:10.998Z,2.10
2022-08-28T08:41:10.922Z,2.00
2022-08-28T08:42:10.900Z,2.30
2022-08-28T08:43:10.891Z,2.30
2022-08-28T08:44:11.018Z,2.50
2022-08-28T08:45:10.882Z,2.40
2022-08-28T08:46:10.915Z,2.20
2022-08-28T08:47:14.512Z,2.10
2022-08-28T08:48:11.002Z,2.30
2022-08-28T08:49:11.521Z,2.50
2022-08-28T08:50:10.851Z,2.50
2022-08-28T08:51:10.841Z,2.40
2022-08-28T08:52:10.833Z,2.50
2022-08-28T08:53:10.829Z,2.40
2022-08-28T08:54:11.100Z,2.40
2022-08-28T08:55:10.871Z,2.20
2022-08-28T08:56:10.800Z,2.20
2022-08-28T08:57:11.260Z,2.60
2022-08-28T08:58:11.863Z,2.50
2022-08-28T08:59:10.833Z,2.70
2022-08-28T09:00:15.558Z,3.10
2022-08-28T09:01:10.802Z,3.60
2022-08-28T09:02:10.767Z,3.10
2022-08-28T09:03:10.793Z,2.70
2022-08-28T09:04:13.326Z,2.70
2022-08-28T09:05:10.783Z,2.90
2022-08-28T09:06:10.739Z,3.20
2022-08-28T09:07:10.732Z,2.50
2022-08-28T09:08:10.720Z,2.70
2022-08-28T09:09:10.720Z,2.90
2022-08-28T09:10:10.961Z,2.70
2022-08-28T09:11:10.711Z,3.00
2022-08-28T09:12:10.710Z,2.60
2022-08-28T09:13:10.782Z,2.60
2022-08-28T09:14:10.710Z,2.40
2022-08-28T09:15:10.740Z,2.50
2022-08-28T09:16:10.791Z,2.40
2022-08-28T09:17:10.808Z,2.20
2022-08-28T09:18:10.678Z,2.50
2022-08-28T09:19:10.709Z,2.50
2022-08-28T09:20:10.819Z,2.40
2022-08-28T09:21:10.670Z,2.30
2022-08-28T09:22:10.669Z,2.20
2022-08-28T09:23:12.598Z,2.20
2022-08-28T09:24:10.981Z,2.20
2022-08-28T09:25:10.788Z,2.20
2022-08-28T09:26:10.870Z,2.30
2022-08-28T09:27:14.326Z,2.20
2022-08-28T09:28:10.593Z,2.20
2022-08-28T09:29:10.618Z,2.50
2022-08-28T09:30:10.621Z,2.40
2022-08-28T09:31:10.711Z,2.50
2022-08-28T09:32:10.618Z,2.70
2022-08-28T09:33:10.616Z,2.20
2022-08-28T09:34:10.732Z,2.60
2022-08-28T09:35:10.829Z,2.40
2022-08-28T09:36:10.520Z,2.60
2022-08-28T09:37:12.385Z,2.50
2022-08-28T09:38:10.501Z,2.30
2022-08-28T09:39:10.507Z,2.50
2022-08-28T09:40:10.545Z,2.40
2022-08-28T09:41:10.490Z,2.40
2022-08-28T09:42:10.689Z,2.50
2022-08-28T09:43:10.469Z,2.50
2022-08-28T09:44:10.471Z,2.40
2022-08-28T09:45:10.488Z,2.70
2022-08-28T09:46:10.784Z,2.60
2022-08-28T09:47:10.738Z,2.50
2022-08-28T09:48:10.438Z,2.60
2022-08-28T09:49:10.428Z,2.60
2022-08-28T09:50:10.447Z,2.30
2022-08-28T09:51:10.418Z,2.30
2022-08-28T09:52:10.408Z,2.40
2022-08-28T09:53:10.723Z,2.60
2022-08-28T09:54:10.399Z,2.60
2022-08-28T09:55:10.428Z,2.50
2022-08-28T09:56:10.378Z,2.50
2022-08-28T09:57:10.707Z,3.10
2022-08-28T09:58:10.368Z,2.50
2022-08-28T09:59:10.358Z,2.00
2022-08-28T10:00:10.388Z,2.30
2022-08-28T10:01:10.383Z,2.40
2022-08-28T10:02:10.501Z,2.30
2022-08-28T10:03:10.328Z,2.50
2022-08-28T10:04:10.356Z,2.40
2022-08-28T10:05:10.327Z,2.10
2022-08-28T10:06:10.315Z,2.50
2022-08-28T10:07:10.757Z,2.60
2022-08-28T10:08:10.309Z,2.30
2022-08-28T10:09:10.688Z,2.40
2022-08-28T10:10:10.298Z,2.30
2022-08-28T10:11:10.279Z,2.50
2022-08-28T10:12:10.358Z,2.40
2022-08-28T10:13:10.372Z,2.20
2022-08-28T10:14:10.256Z,2.40
2022-08-28T10:15:10.248Z,2.80
2022-08-28T10:16:10.578Z,2.70
2022-08-28T10:17:10.627Z,2.30
2022-08-28T10:18:10.229Z,2.30
2022-08-28T10:19:10.225Z,2.70
2022-08-28T10:20:10.377Z,2.50
2022-08-28T10:21:10.687Z,2.80
2022-08-28T10:22:10.198Z,2.50
2022-08-28T10:23:13.392Z,2.70
2022-08-28T10:24:10.266Z,2.30
2022-08-28T10:25:10.188Z,2.30
2022-08-28T10:26:10.188Z,2.30
2022-08-28T10:27:10.161Z,2.30
2022-08-28T10:28:10.161Z,2.50
2022-08-28T10:29:10.157Z,2.30
2022-08-28T10:30:13.387Z,2.10
2022-08-28T10:31:10.187Z,2.20
2022-08-28T10:32:10.127Z,2.70
2022-08-28T10:33:10.118Z,2.60
2022-08-28T10:34:10.634Z,2.30
2022-08-28T10:35:10.699Z,2.90
2022-08-28T10:36:33.426Z,2.50
2022-08-28T10:37:10.089Z,2.50
2022-08-28T10:38:10.087Z,2.30
2022-08-28T10:39:10.837Z,2.60
2022-08-28T10:40:10.195Z,2.80
2022-08-28T10:41:10.077Z,2.70
2022-08-28T10:42:10.066Z,2.40
2022-08-28T10:43:10.602Z,2.20
2022-08-28T10:44:10.047Z,2.60
2022-08-28T10:45:10.037Z,2.50
2022-08-28T10:46:10.103Z,2.70
2022-08-28T10:47:10.029Z,2.20
2022-08-28T10:48:10.735Z,2.50
2022-08-28T10:49:10.728Z,2.50
2022-08-28T10:50:10.974Z,2.40
2022-08-28T10:51:10.017Z,2.30
2022-08-28T10:52:09.995Z,2.30
2022-08-28T10:53:10.692Z,2.50
2022-08-28T10:54:10.741Z,2.40
2022-08-28T10:55:09.966Z,2.30
2022-08-28T10:56:09.976Z,2.60
2022-08-28T10:57:09.966Z,2.40
2022-08-28T10:58:24.058Z,2.40
2022-08-28T10:59:09.937Z,2.30
2022-08-28T11:00:09.936Z,2.50
2022-08-28T11:01:10.072Z,2.10
2022-08-28T11:02:10.101Z,2.30
2022-08-28T11:03:27.110Z,2.30
2022-08-28T11:04:09.907Z,2.40
2022-08-28T11:05:09.897Z,2.20
2022-08-28T11:06:09.907Z,2.60
2022-08-28T11:07:10.298Z,2.50
2022-08-28T11:08:09.959Z,2.50
2022-08-28T11:09:09.867Z,2.40
2022-08-28T11:10:09.891Z,2.70
2022-08-28T11:11:09.901Z,2.40
2022-08-28T11:12:10.593Z,2.50
2022-08-28T11:13:09.906Z,2.30
2022-08-28T11:14:09.834Z,2.60
2022-08-28T11:15:09.826Z,2.50
2022-08-28T11:16:09.845Z,2.30
2022-08-28T11:17:10.766Z,2.30
2022-08-28T11:18:09.807Z,2.30
2022-08-28T11:19:09.798Z,2.10
2022-08-28T11:20:10.499Z,2.50
2022-08-28T11:21:10.707Z,2.50
2022-08-28T11:22:09.786Z,2.40
2022-08-28T11:23:09.853Z,2.20
2022-08-28T11:24:09.789Z,2.30
2022-08-28T11:25:09.984Z,2.80
2022-08-28T11:26:09.768Z,2.40
2022-08-28T11:27:09.737Z,2.30
2022-08-28T11:28:09.737Z,2.20
2022-08-28T11:29:09.728Z,2.50
2022-08-28T11:30:09.731Z,2.40
2022-08-28T11:31:09.773Z,2.20
2022-08-28T11:32:09.716Z,2.20
2022-08-28T11:33:09.787Z,2.50
2022-08-28T11:34:09.698Z,2.50
2022-08-28T11:35:10.297Z,2.00
2022-08-28T11:36:09.704Z,2.60
2022-08-28T11:37:09.675Z,2.20
2022-08-28T11:38:09.676Z,2.80
2022-08-28T11:39:09.666Z,2.20
2022-08-28T11:40:10.017Z,2.20
2022-08-28T11:41:09.680Z,2.40
2022-08-28T11:42:09.641Z,2.20
2022-08-28T11:43:09.626Z,2.30
2022-08-28T11:44:09.841Z,2.40
2022-08-28T11:45:09.616Z,2.30
2022-08-28T11:46:09.687Z,2.30
2022-08-28T11:47:09.605Z,2.30
2022-08-28T11:48:09.607Z,2.40
2022-08-28T11:49:09.587Z,2.60
2022-08-28T11:50:09.588Z,2.30
2022-08-28T11:51:09.595Z,2.70
2022-08-28T11:52:09.577Z,2.30
2022-08-28T11:53:09.573Z,2.30
2022-08-28T11:54:09.560Z,2.20
2022-08-28T11:55:09.556Z,2.30
2022-08-28T11:56:09.569Z,2.20
2022-08-28T11:57:09.538Z,2.30
2022-08-28T11:59:16.455Z,2.40
2022-08-28T12:00:15.534Z,2.40
2022-08-28T12:01:15.555Z,2.20
2022-08-28T12:02:15.649Z,2.40
2022-08-28T12:03:16.345Z,2.00
2022-08-28T12:04:16.595Z,2.30
2022-08-28T12:05:15.499Z,2.10
2022-08-28T12:06:15.555Z,2.30
2022-08-28T12:07:15.485Z,2.60
2022-08-28T12:08:15.476Z,2.00
2022-08-28T12:09:16.536Z,2.20
2022-08-28T12:10:16.244Z,2.70
2022-08-28T12:11:15.474Z,2.40
2022-08-28T12:12:15.449Z,2.40
2022-08-28T12:13:15.602Z,2.20
2022-08-28T12:14:15.435Z,2.40
2022-08-28T12:15:15.435Z,2.30
2022-08-28T12:16:16.002Z,2.30
2022-08-28T12:17:15.657Z,2.30
2022-08-28T12:18:15.767Z,2.30
2022-08-28T12:19:15.815Z,2.00
2022-08-28T12:20:15.620Z,2.30
2022-08-28T12:21:15.636Z,2.20
2022-08-28T12:22:15.949Z,2.10
2022-08-28T12:23:16.006Z,2.00
2022-08-28T12:24:15.378Z,2.10
2022-08-28T12:25:15.387Z,2.00
2022-08-28T12:26:15.376Z,2.10
2022-08-28T12:27:15.356Z,2.10
2022-08-28T12:28:15.338Z,2.10
2022-08-28T12:29:15.344Z,2.10
2022-08-28T12:30:15.329Z,2.10
2022-08-28T12:31:15.836Z,2.20
2022-08-28T12:32:15.313Z,1.90
2022-08-28T12:33:15.307Z,2.20
2022-08-28T12:34:15.308Z,2.10
2022-08-28T12:35:16.777Z,1.90
2022-08-28T12:36:15.337Z,2.00
2022-08-28T12:37:15.283Z,2.10
2022-08-28T12:38:15.268Z,2.30
2022-08-28T12:39:15.307Z,2.10
2022-08-28T12:40:15.376Z,2.30
2022-08-28T12:41:15.507Z,2.20
2022-08-28T12:42:15.248Z,2.10
2022-08-28T12:43:15.685Z,2.10
2022-08-28T12:44:15.236Z,2.00
2022-08-28T12:45:15.227Z,2.00
2022-08-28T12:46:18.877Z,1.90
2022-08-28T12:47:15.227Z,1.90
2022-08-28T12:48:15.215Z,2.00
2022-08-28T12:49:15.230Z,1.70
2022-08-28T12:50:15.290Z,2.20
2022-08-28T12:51:15.325Z,2.00
2022-08-28T12:52:16.925Z,2.00
2022-08-28T12:53:15.284Z,1.90
2022-08-28T12:54:15.337Z,2.00
2022-08-28T12:55:15.159Z,1.80
2022-08-28T12:56:15.157Z,2.00
2022-08-28T12:57:15.179Z,2.00
2022-08-28T12:58:15.135Z,2.10
2022-08-28T12:59:15.517Z,2.00
2022-08-28T13:00:15.117Z,2.00
2022-08-28T13:01:15.272Z,2.10
2022-08-28T13:02:15.926Z,2.00
2022-08-28T13:03:15.886Z,2.00
2022-08-28T13:04:15.106Z,1.90
2022-08-28T13:05:15.109Z,2.10
2022-08-28T13:06:15.077Z,1.90
2022-08-28T13:07:15.136Z,1.60
2022-08-28T13:08:15.356Z,2.00
2022-08-28T13:09:15.066Z,2.10
2022-08-28T13:10:15.047Z,2.10
2022-08-28T13:11:15.057Z,1.70
2022-08-28T13:12:15.058Z,1.80
2022-08-28T13:13:15.038Z,1.90
2022-08-28T13:14:15.027Z,1.90
2022-08-28T13:15:15.018Z,1.80
2022-08-28T13:16:15.597Z,2.00
2022-08-28T13:17:15.030Z,1.80
2022-08-28T13:18:14.989Z,1.90
2022-08-28T13:19:14.997Z,2.20